Time;durP1;ratioP1;P1;durP2;ratioP2;P2;SDS_P1;SDS_P2;PMS_P1;PMS_P2;Temp;Humidity;BMP_temperature;BMP_pressure;BME280_temperature;BME280_humidity;BME280_pressure;Samples;Min_cycle;Max_cycle;Signal;HPM_P1;HPM_P2
2022/07/29 00:02:39;;;;;;;17.83;13.07;;;;;;;25.64;100.00;101120.19;4959629;29;20039;-75
2022/07/29 00:05:25;;;;;;;25.27;14.20;;;;;;;25.48;100.00;101122.25;4945453;28;20046;-75
2022/07/29 00:08:10;;;;;;;21.63;13.63;;;;;;;25.48;100.00;101110.69;4959728;29;20031;-75
2022/07/29 00:10:56;;;;;;;21.98;13.40;;;;;;;25.37;100.00;101124.00;4958613;29;20474;-75
2022/07/29 00:13:42;;;;;;;21.27;13.32;;;;;;;25.51;100.00;101129.25;4959867;28;20031;-75
2022/07/29 00:16:27;;;;;;;21.77;12.65;;;;;;;25.13;100.00;101140.03;4959007;29;20042;-75
2022/07/29 00:19:13;;;;;;;17.77;12.95;;;;;;;25.16;100.00;101133.56;4958992;29;20047;-75
2022/07/29 00:22:00;;;;;;;17.20;12.05;;;;;;;24.98;100.00;101133.03;4958115;29;20343;-75
2022/07/29 00:24:48;;;;;;;16.30;11.98;;;;;;;25.24;100.00;101134.72;4958690;28;20031;-75
2022/07/29 00:27:35;;;;;;;16.60;10.57;;;;;;;25.08;100.00;101133.25;4958614;29;20101;-74
2022/07/29 00:30:23;;;;;;;11.55;9.73;;;;;;;25.08;100.00;101135.94;4958209;29;20031;-75
2022/07/29 00:33:09;;;;;;;13.35;8.15;;;;;;;24.97;100.00;101135.81;4958855;29;20041;-75
2022/07/29 00:35:55;;;;;;;8.90;7.38;;;;;;;25.10;100.00;101128.63;4958004;29;20027;-75
2022/07/29 00:38:44;;;;;;;10.32;7.70;;;;;;;24.89;100.00;101131.00;4958636;29;20023;-75
2022/07/29 00:41:29;;;;;;;11.35;7.07;;;;;;;24.88;100.00;101131.13;4958677;29;20027;-75
2022/07/29 00:44:15;;;;;;;8.13;6.68;;;;;;;24.79;100.00;101134.44;4958108;28;20027;-74
2022/07/29 00:47:01;;;;;;;11.82;6.95;;;;;;;24.85;100.00;101134.88;4957903;29;20031;-75
2022/07/29 00:49:47;;;;;;;10.82;6.78;;;;;;;24.79;100.00;101129.09;4958051;28;20027;-76
2022/07/29 00:52:35;;;;;;;7.97;6.40;;;;;;;25.07;100.00;101128.88;4944484;29;20039;-75
2022/07/29 00:55:21;;;;;;;8.55;6.82;;;;;;;25.17;100.00;101129.91;4957928;28;20039;-76
2022/07/29 00:58:07;;;;;;;8.25;6.88;;;;;;;24.90;100.00;101121.13;4957883;29;20019;-75
2022/07/29 01:00:53;;;;;;;9.40;6.47;;;;;;;24.68;100.00;101124.47;4957716;29;20027;-75
2022/07/29 01:03:39;;;;;;;10.88;6.30;;;;;;;24.67;100.00;101119.22;4958152;28;20381;-74
2022/07/29 01:06:24;;;;;;;9.65;6.95;;;;;;;24.52;100.00;101118.41;4958027;29;20114;-75
2022/07/29 01:09:10;;;;;;;10.38;6.53;;;;;;;24.50;100.00;101117.66;4958708;29;20106;-74
2022/07/29 01:11:57;;;;;;;8.48;6.55;;;;;;;24.54;100.00;101124.50;4958051;29;20023;-75
2022/07/29 01:14:43;;;;;;;10.63;6.57;;;;;;;24.67;100.00;101116.53;4958180;28;20023;-74
2022/07/29 01:17:38;;;;;;;10.43;6.50;;;;;;;24.88;100.00;101126.63;4958193;29;20370;-74
2022/07/29 01:21:01;;;;;;;10.95;7.70;;;;;;;24.77;100.00;101112.25;4957527;29;20422;-75
2022/07/29 01:24:16;;;;;;;13.27;8.20;;;;;;;24.70;100.00;101117.16;4957472;28;20098;-76
2022/07/29 01:27:26;;;;;;;11.30;8.60;;;;;;;24.50;100.00;101108.75;4957253;29;20066;-75
2022/07/29 01:30:13;;;;;;;8.95;8.05;;;;;;;24.55;100.00;101110.16;4957460;29;20070;-75
2022/07/29 01:33:02;;;;;;;14.25;8.70;;;;;;;24.29;100.00;101103.06;4945212;28;20131;-75
2022/07/29 01:35:47;;;;;;;12.80;8.57;;;;;;;24.35;100.00;101104.47;4956601;29;20050;-74
2022/07/29 01:38:35;;;;;;;11.07;8.70;;;;;;;24.48;100.00;101108.00;4943823;29;20450;-76
2022/07/29 01:41:22;;;;;;;16.85;9.43;;;;;;;24.35;100.00;101107.97;4942827;29;20115;-75
2022/07/29 01:44:27;;;;;;;22.20;9.48;;;;;;;24.09;100.00;101100.84;4957230;28;20375;-76
2022/07/29 01:47:20;;;;;;;14.65;9.45;;;;;;;24.37;100.00;101108.75;4944006;29;20101;-76
2022/07/29 01:50:10;;;;;;;14.98;9.00;;;;;;;24.33;100.00;101106.38;4957545;29;20042;-75
2022/07/29 01:53:02;;;;;;;13.80;9.43;;;;;;;24.23;100.00;101103.44;4956430;29;20034;-75
2022/07/29 01:55:49;;;;;;;15.68;8.75;;;;;;;24.16;100.00;101107.53;4957821;29;20027;-75
2022/07/29 01:58:39;;;;;;;19.65;9.75;;;;;;;24.17;100.00;101111.03;4956943;29;20518;-75
2022/07/29 02:01:27;;;;;;;16.23;9.38;;;;;;;24.43;100.00;101107.47;4956664;28;20377;-74
2022/07/29 02:04:15;;;;;;;17.95;9.10;;;;;;;24.13;100.00;101098.81;4956769;28;20105;-74
2022/07/29 02:07:04;;;;;;;11.88;8.68;;;;;;;24.17;100.00;101103.00;4943446;29;20032;-75
2022/07/29 02:09:53;;;;;;;14.57;8.60;;;;;;;24.16;100.00;101109.34;4956662;29;20115;-75
2022/07/29 02:12:40;;;;;;;11.30;7.97;;;;;;;24.29;100.00;101105.72;4955645;29;20027;-75
2022/07/29 02:15:28;;;;;;;11.98;8.10;;;;;;;24.30;100.00;101101.25;4957080;28;20473;-75
2022/07/29 02:18:17;;;;;;;14.10;8.45;;;;;;;23.84;100.00;101095.41;4956830;29;20026;-75
2022/07/29 02:21:04;;;;;;;14.00;8.02;;;;;;;23.85;100.00;101093.56;4942455;29;20039;-75
2022/07/29 02:23:52;;;;;;;12.40;7.93;;;;;;;23.81;100.00;101089.38;4955674;28;20035;-75
2022/07/29 02:26:41;;;;;;;18.85;8.88;;;;;;;23.71;100.00;101094.47;4956572;29;20083;-75
2022/07/29 02:29:29;;;;;;;12.43;8.75;;;;;;;23.85;100.00;101093.56;4956361;29;20378;-75
2022/07/29 02:32:17;;;;;;;15.13;8.55;;;;;;;23.97;100.00;101095.44;4956745;29;20031;-75
2022/07/29 02:35:04;;;;;;;17.10;8.82;;;;;;;24.00;100.00;101096.13;4956085;28;20031;-75
2022/07/29 02:40:57;;;;;;;16.05;9.07;;;;;;;24.01;100.00;101102.31;4956207;29;20521;-75
2022/07/29 02:43:47;;;;;;;22.80;8.90;;;;;;;24.12;100.00;101100.66;4955941;28;20039;-74
2022/07/29 02:46:35;;;;;;;15.15;8.32;;;;;;;24.03;100.00;101103.09;4943796;29;20035;-75
2022/07/29 02:49:29;;;;;;;14.52;9.45;;;;;;;23.92;100.00;101105.63;4956068;29;20461;-74
2022/07/29 02:52:24;;;;;;;20.33;9.60;;;;;;;23.87;100.00;101105.03;4956936;29;20512;-75
2022/07/29 02:55:22;;;;;;;15.55;9.75;;;;;;;24.07;100.00;101112.63;4955670;28;20059;-74
2022/07/29 02:58:28;;;;;;;17.00;10.27;;;;;;;23.75;100.00;101116.53;4955694;29;20016;-75
2022/07/29 03:01:21;;;;;;;19.60;10.55;;;;;;;23.65;100.00;101115.41;4955087;29;20034;-75
2022/07/29 03:04:09;;;;;;;17.48;11.60;;;;;;;23.62;100.00;101116.47;4955652;28;20505;-75
2022/07/29 03:06:59;;;;;;;19.27;11.30;;;;;;;23.39;100.00;101115.28;4955470;29;20026;-75
2022/07/29 03:09:45;;;;;;;15.43;11.50;;;;;;;23.59;100.00;101127.41;4955803;29;20043;-75
2022/07/29 03:12:32;;;;;;;16.38;12.48;;;;;;;23.73;100.00;101124.66;4957927;29;20446;-74
2022/07/29 03:15:19;;;;;;;15.70;11.82;;;;;;;23.33;100.00;101131.72;4964954;28;20038;-74
2022/07/29 03:18:06;;;;;;;21.15;11.00;;;;;;;23.25;100.00;101134.03;4965191;28;20031;-74
2022/07/29 03:20:52;;;;;;;13.75;11.23;;;;;;;23.55;100.00;101130.34;4951681;29;20031;-74
2022/07/29 03:23:44;;;;;;;17.42;11.75;;;;;;;23.47;100.00;101140.69;4965856;28;20038;-74
2022/07/29 03:26:30;;;;;;;17.00;11.57;;;;;;;23.31;100.00;101136.31;4952093;29;20078;-73
2022/07/29 03:29:16;;;;;;;15.10;11.38;;;;;;;23.35;100.00;101137.81;4965833;28;20112;-73
2022/07/29 03:32:04;;;;;;;20.50;11.43;;;;;;;23.30;100.00;101131.03;4965852;28;20031;-73
2022/07/29 03:34:50;;;;;;;13.07;10.18;;;;;;;23.55;100.00;101131.22;4963604;28;20034;-76
2022/07/29 03:37:36;;;;;;;16.38;10.38;;;;;;;23.45;100.00;101143.44;4963009;29;20027;-74
2022/07/29 03:40:26;;;;;;;15.80;10.27;;;;;;;23.52;100.00;101141.25;4950125;29;20027;-74
2022/07/29 03:43:15;;;;;;;15.88;9.70;;;;;;;23.65;100.00;101142.16;4963234;28;20027;-74
2022/07/29 03:46:03;;;;;;;16.15;9.85;;;;;;;23.80;100.00;101136.69;4962475;28;20041;-73
2022/07/29 03:48:56;;;;;;;15.93;9.63;;;;;;;23.59;100.00;101145.25;4949129;29;20050;-74
2022/07/29 03:51:42;;;;;;;14.98;8.68;;;;;;;23.76;100.00;101139.66;4962194;29;20027;-75
2022/07/29 03:54:28;;;;;;;17.83;9.65;;;;;;;24.01;100.00;101134.44;4962571;28;20112;-74
2022/07/29 03:57:15;;;;;;;18.33;9.63;;;;;;;23.79;100.00;101140.31;4963167;28;20035;-75
2022/07/29 04:00:05;;;;;;;13.30;8.90;;;;;;;24.01;100.00;101153.19;4963138;28;20324;-74
2022/07/29 04:02:50;;;;;;;14.98;8.45;;;;;;;23.94;100.00;101154.56;4962705;29;20394;-75
2022/07/29 04:05:36;;;;;;;15.13;8.48;;;;;;;23.61;100.00;101156.69;4962276;29;20027;-75
2022/07/29 04:08:22;;;;;;;16.98;8.13;;;;;;;23.85;100.00;101149.75;4963016;28;20027;-75
2022/07/29 04:11:08;;;;;;;14.57;7.90;;;;;;;23.96;100.00;101155.31;4962205;29;20031;-76
2022/07/29 04:13:53;;;;;;;11.15;7.65;;;;;;;24.04;100.00;101158.34;4961510;28;20027;-73
2022/07/29 04:16:39;;;;;;;10.75;7.30;;;;;;;24.17;100.00;101152.06;4962026;28;20093;-75
2022/07/29 04:19:25;;;;;;;17.02;8.05;;;;;;;23.85;100.00;101155.13;4962560;29;20097;-74
2022/07/29 04:22:11;;;;;;;15.15;8.07;;;;;;;23.65;100.00;101155.53;4961686;29;20079;-75
2022/07/29 04:24:57;;;;;;;11.82;8.30;;;;;;;24.04;100.00;101167.25;4947038;29;20027;-74
2022/07/29 04:27:59;;;;;;;14.38;8.27;;;;;;;24.04;100.00;101167.25;4958497;29;20466;-75
2022/07/29 04:30:45;;;;;;;16.50;8.32;;;;;;;23.97;100.00;101160.56;4958023;29;20057;-75
2022/07/29 04:33:31;;;;;;;17.77;8.40;;;;;;;24.12;100.00;101164.94;4957563;28;20030;-75
2022/07/29 04:36:17;;;;;;;14.73;8.80;;;;;;;24.10;100.00;101174.84;4945132;29;20058;-74
2022/07/29 04:39:03;;;;;;;15.32;8.45;;;;;;;24.19;100.00;101174.25;4958239;29;20023;-76
2022/07/29 04:41:50;;;;;;;17.33;8.93;;;;;;;24.36;100.00;101170.44;4957783;29;20042;-75
2022/07/29 04:44:35;;;;;;;19.05;8.85;;;;;;;24.40;100.00;101170.16;4957981;28;20365;-75
2022/07/29 04:47:21;;;;;;;13.15;8.65;;;;;;;24.70;100.00;101173.44;4958331;29;20458;-75
2022/07/29 04:50:08;;;;;;;14.27;8.77;;;;;;;25.01;100.00;101169.50;4958229;29;20039;-75
2022/07/29 04:52:54;;;;;;;19.58;9.25;;;;;;;24.79;100.00;101172.81;4957975;29;20034;-75
2022/07/29 04:55:40;;;;;;;14.93;8.20;;;;;;;24.99;100.00;101179.50;4958646;29;20367;-75
2022/07/29 04:58:26;;;;;;;14.88;8.02;;;;;;;24.84;100.00;101178.75;4957020;29;20023;-75
2022/07/29 05:01:11;;;;;;;14.20;7.65;;;;;;;24.96;100.00;101182.38;4957758;29;20039;-75
2022/07/29 05:03:57;;;;;;;16.27;7.85;;;;;;;24.94;100.00;101189.66;4957945;28;20062;-74
2022/07/29 05:06:43;;;;;;;12.57;7.55;;;;;;;24.98;100.00;101181.31;4957384;29;20110;-75
2022/07/29 05:09:28;;;;;;;14.88;7.20;;;;;;;24.94;100.00;101185.16;4958272;29;20373;-76
2022/07/29 05:12:14;;;;;;;16.15;7.30;;;;;;;25.16;100.00;101188.06;4957999;29;20374;-75
2022/07/29 05:15:00;;;;;;;15.27;7.47;;;;;;;25.19;100.00;101182.47;4944360;29;20369;-75
2022/07/29 05:17:46;;;;;;;15.98;7.22;;;;;;;25.36;100.00;101184.84;4957503;29;20110;-76
2022/07/29 05:20:33;;;;;;;21.83;6.72;;;;;;;25.69;100.00;101192.31;4958184;29;20031;-75
2022/07/29 05:23:19;;;;;;;15.88;7.20;;;;;;;25.47;100.00;101190.31;4957325;28;20027;-76
2022/07/29 05:26:05;;;;;;;12.80;6.32;;;;;;;25.70;100.00;101188.66;4957430;29;20433;-74
2022/07/29 05:28:51;;;;;;;12.88;7.07;;;;;;;26.11;100.00;101200.81;4957685;29;20031;-75
2022/07/29 05:31:36;;;;;;;12.10;6.50;;;;;;;25.80;100.00;101195.09;4957864;29;20027;-75
2022/07/29 05:34:22;;;;;;;14.15;7.35;;;;;;;26.16;100.00;101195.13;4957083;28;20027;-75
2022/07/29 05:37:08;;;;;;;13.15;7.55;;;;;;;26.22;100.00;101198.19;4956707;28;20090;-74
2022/07/29 05:39:54;;;;;;;13.30;7.13;;;;;;;25.93;100.00;101201.28;4956659;29;20110;-75
2022/07/29 05:42:40;;;;;;;11.70;7.30;;;;;;;26.05;100.00;101198.59;4957289;29;20035;-75
2022/07/29 05:45:25;;;;;;;17.30;7.00;;;;;;;26.23;100.00;101190.97;4957265;28;20035;-75
2022/07/29 05:48:11;;;;;;;11.75;7.10;;;;;;;26.29;100.00;101193.22;4957317;29;20477;-75
2022/07/29 05:50:57;;;;;;;9.75;6.93;;;;;;;26.37;100.00;101193.50;4957395;29;20122;-75
2022/07/29 05:53:44;;;;;;;14.75;7.13;;;;;;;26.46;100.00;101185.59;4957048;28;20020;-74
2022/07/29 05:56:30;;;;;;;15.40;7.18;;;;;;;26.63;100.00;101195.09;4956334;29;20109;-75
2022/07/29 05:59:16;;;;;;;15.20;7.43;;;;;;;26.69;100.00;101195.47;4956794;29;20034;-75
2022/07/29 06:02:02;;;;;;;12.70;7.78;;;;;;;26.77;100.00;101190.38;4957230;29;20106;-75
2022/07/29 06:04:48;;;;;;;14.98;7.45;;;;;;;26.99;100.00;101203.00;4955730;28;20053;-75
2022/07/29 06:07:34;;;;;;;11.48;8.00;;;;;;;27.19;100.00;101200.50;4956656;29;20097;-75
2022/07/29 06:10:19;;;;;;;16.38;7.05;;;;;;;27.22;100.00;101199.44;4957230;29;20146;-76
2022/07/29 06:13:06;;;;;;;13.75;6.60;;;;;;;27.00;100.00;101197.53;4956661;29;20086;-75
2022/07/29 06:15:51;;;;;;;9.90;4.70;;;;;;;27.00;100.00;101196.66;4956343;29;20094;-75
2022/07/29 06:18:37;;;;;;;7.82;4.70;;;;;;;27.25;100.00;101196.50;4956726;29;20037;-75
2022/07/29 06:21:23;;;;;;;12.20;4.90;;;;;;;27.41;100.00;101189.75;4943025;29;20061;-75
2022/07/29 06:24:10;;;;;;;9.50;5.30;;;;;;;27.43;100.00;101195.91;4956112;28;20027;-75
2022/07/29 06:26:56;;;;;;;7.63;5.18;;;;;;;27.58;100.00;101193.81;4956336;29;20054;-75
2022/07/29 06:29:42;;;;;;;11.30;5.50;;;;;;;27.58;100.00;101190.25;4955957;29;20035;-75
2022/07/29 06:32:27;;;;;;;11.95;5.80;;;;;;;27.99;100.00;101198.53;4956453;29;20146;-75
2022/07/29 06:35:13;;;;;;;9.10;5.57;;;;;;;28.19;100.00;101189.66;4942909;29;20470;-75
2022/07/29 06:37:59;;;;;;;9.20;5.10;;;;;;;28.23;100.00;101197.38;4956048;29;20046;-76
2022/07/29 06:41:07;;;;;;;10.05;5.47;;;;;;;27.90;100.00;101194.78;4956702;29;20023;-75
2022/07/29 06:43:56;;;;;;;8.73;4.95;;;;;;;28.24;100.00;101198.25;4956873;28;20090;-76
2022/07/29 06:46:41;;;;;;;14.75;5.55;;;;;;;28.33;100.00;101201.00;4955500;29;20030;-75
2022/07/29 06:49:28;;;;;;;8.60;5.28;;;;;;;28.46;100.00;101208.97;4955601;28;20371;-75
2022/07/29 06:52:13;;;;;;;9.13;4.88;;;;;;;28.45;99.01;101191.94;4943263;29;20109;-75
2022/07/29 06:54:59;;;;;;;6.97;4.45;;;;;;;28.88;95.90;101199.94;4955099;28;20326;-75
2022/07/29 06:57:46;;;;;;;8.70;4.22;;;;;;;29.08;93.56;101199.97;4956674;29;20031;-76
2022/07/29 07:00:31;;;;;;;12.00;4.65;;;;;;;29.25;91.68;101204.75;4955873;29;20053;-76
2022/07/29 07:03:18;;;;;;;11.73;3.90;;;;;;;28.95;91.36;101198.41;4942281;28;20086;-75
2022/07/29 07:06:04;;;;;;;6.53;3.72;;;;;;;29.43;89.47;101202.28;4942472;29;20031;-75
2022/07/29 07:08:49;;;;;;;7.68;3.72;;;;;;;29.17;86.19;101207.25;4955700;29;20047;-75
2022/07/29 07:11:35;;;;;;;11.98;3.80;;;;;;;29.18;86.20;101206.28;4956224;29;20050;-75
2022/07/29 07:14:21;;;;;;;8.32;3.92;;;;;;;29.36;85.82;101195.69;4956421;28;20446;-75
2022/07/29 07:17:07;;;;;;;7.95;4.05;;;;;;;29.87;84.67;101196.50;4954913;29;20020;-75
2022/07/29 07:19:53;;;;;;;4.10;3.70;;;;;;;29.67;82.45;101200.13;4954954;29;20035;-75
2022/07/29 07:22:39;;;;;;;7.38;4.18;;;;;;;29.93;80.61;101195.97;4956442;29;20039;-75
2022/07/29 07:25:25;;;;;;;7.78;3.63;;;;;;;30.41;79.62;101192.34;4955991;28;20047;-74
2022/07/29 07:28:11;;;;;;;13.73;10.55;;;;;;;30.29;76.21;101204.31;4955139;29;20031;-76
2022/07/29 07:30:56;;;;;;;4.05;3.35;;;;;;;30.29;72.71;101192.63;4955454;29;20055;-75
2022/07/29 07:33:42;;;;;;;6.47;3.78;;;;;;;30.63;71.18;101194.78;4956119;28;20097;-75
2022/07/29 07:36:28;;;;;;;5.50;3.42;;;;;;;30.73;71.67;101181.25;4955156;29;20054;-75
2022/07/29 07:39:14;;;;;;;6.15;3.40;;;;;;;30.68;67.64;101186.22;4956213;29;20027;-76
2022/07/29 07:42:00;;;;;;;9.30;3.88;;;;;;;31.08;66.84;101192.31;4941772;29;20433;-75
2022/07/29 07:44:45;;;;;;;4.43;3.10;;;;;;;31.02;61.61;101196.47;4956422;28;20082;-76
2022/07/29 07:47:32;;;;;;;4.78;3.17;;;;;;;31.33;60.83;101189.84;4955374;29;20118;-76
2022/07/29 07:50:18;;;;;;;4.88;3.05;;;;;;;31.08;60.01;101187.78;4942969;29;20446;-76
2022/07/29 07:53:04;;;;;;;8.25;3.20;;;;;;;31.21;58.69;101182.88;4955759;29;20063;-75
2022/07/29 07:55:50;;;;;;;4.63;3.35;;;;;;;31.63;58.58;101182.47;4955940;29;20031;-75
2022/07/29 07:58:36;;;;;;;7.70;3.20;;;;;;;31.74;57.02;101187.69;4955791;29;20097;-75
2022/07/29 08:01:22;;;;;;;3.85;3.03;;;;;;;31.78;54.31;101187.25;4959554;29;20419;-75
2022/07/29 08:04:09;;;;;;;9.90;4.10;;;;;;;31.90;55.26;101187.91;4959672;28;20057;-75
2022/07/29 08:06:56;;;;;;;4.13;3.13;;;;;;;31.76;52.61;101191.94;4959258;29;20046;-77
2022/07/29 08:09:45;;;;;;;9.93;3.10;;;;;;;31.83;52.06;101181.38;4959335;29;20469;-76
2022/07/29 08:12:33;;;;;;;4.13;3.08;;;;;;;31.96;51.29;101184.59;4958530;29;20050;-75
2022/07/29 08:15:19;;;;;;;6.45;3.38;;;;;;;32.60;51.89;101175.28;4959375;28;20534;-76
2022/07/29 08:18:05;;;;;;;6.13;3.33;;;;;;;32.76;51.32;101180.84;4959088;29;20028;-75
2022/07/29 08:20:51;;;;;;;5.28;3.08;;;;;;;32.59;48.85;101178.16;4944942;29;20030;-76
2022/07/29 08:23:45;;;;;;;3.50;3.20;;;;;;;33.03;47.79;101188.03;4958930;28;20461;-76
2022/07/29 08:26:31;;;;;;;5.95;3.42;;;;;;;33.28;48.30;101187.16;4958527;29;20185;-76
2022/07/29 08:29:17;;;;;;;3.85;3.45;;;;;;;33.80;46.54;101184.25;4958978;29;20031;-75
2022/07/29 08:32:09;;;;;;;5.35;3.30;;;;;;;33.90;48.01;101181.38;4958954;29;20031;-75
2022/07/29 08:34:54;;;;;;;3.80;3.50;;;;;;;34.26;44.86;101180.13;4945931;29;20340;-75
2022/07/29 08:37:41;;;;;;;6.35;3.40;;;;;;;34.44;45.26;101170.81;4958498;29;20046;-75
2022/07/29 08:40:27;;;;;;;4.82;3.60;;;;;;;34.02;46.10;101178.22;4945181;29;20038;-75
2022/07/29 08:43:13;;;;;;;10.52;3.50;;;;;;;33.91;46.81;101174.94;4958075;28;20035;-76
2022/07/29 08:46:00;;;;;;;3.63;3.05;;;;;;;34.40;44.69;101168.63;4945295;29;20038;-75
2022/07/29 08:48:47;;;;;;;8.02;3.17;;;;;;;34.26;45.15;101169.22;4931513;29;20028;-75
2022/07/29 08:51:35;;;;;;;7.45;3.92;;;;;;;34.60;44.51;101165.38;4958126;29;20027;-76
2022/07/29 08:54:22;;;;;;;6.30;3.50;;;;;;;34.85;44.56;101160.81;4958525;28;20110;-75
2022/07/29 08:57:08;;;;;;;5.57;3.13;;;;;;;34.78;46.16;101152.44;4945513;29;20038;-74
2022/07/29 08:59:54;;;;;;;6.25;3.40;;;;;;;34.82;44.07;101147.53;4958376;29;20477;-75
2022/07/29 09:02:44;;;;;;;4.53;3.60;;;;;;;35.16;44.42;101150.88;4958309;29;20085;-75
2022/07/29 09:05:31;;;;;;;3.80;3.40;;;;;;;34.94;43.91;101148.88;4957697;28;20073;-76
2022/07/29 09:08:17;;;;;;;5.80;3.30;;;;;;;34.56;43.27;101139.50;4958326;29;20090;-75
2022/07/29 09:11:03;;;;;;;5.60;3.45;;;;;;;34.48;43.63;101144.97;4956956;28;20039;-75
2022/07/29 09:13:49;;;;;;;4.07;3.47;;;;;;;34.36;43.40;101140.88;4958405;28;20027;-76
2022/07/29 09:16:45;;;;;;;5.32;3.20;;;;;;;34.87;44.41;101145.13;4957841;28;20027;-76
2022/07/29 09:19:36;;;;;;;4.47;3.30;;;;;;;35.28;42.66;101140.44;4945223;29;20050;-75
2022/07/29 09:22:33;;;;;;;8.55;3.30;;;;;;;35.00;44.61;101142.75;4957412;29;20032;-75
2022/07/29 09:25:33;;;;;;;7.82;3.80;;;;;;;34.71;44.34;101142.38;4944188;29;20473;-76
2022/07/29 09:28:21;;;;;;;8.13;4.82;;;;;;;34.77;42.87;101144.44;4957867;29;20031;-76
2022/07/29 09:31:08;;;;;;;7.38;4.97;;;;;;;35.32;40.73;101142.69;4957825;29;20469;-75
2022/07/29 09:33:57;;;;;;;4.47;3.65;;;;;;;34.38;42.56;101144.28;4957587;28;20125;-75
2022/07/29 09:36:48;;;;;;;4.55;3.10;;;;;;;34.94;41.94;101146.16;4956946;29;20057;-76
2022/07/29 09:39:45;;;;;;;3.88;3.28;;;;;;;35.09;40.97;101141.69;4957257;29;20140;-76
2022/07/29 09:42:33;;;;;;;8.50;3.50;;;;;;;34.78;41.50;101144.28;4956359;29;20031;-76
2022/07/29 09:45:37;;;;;;;4.20;3.30;;;;;;;34.63;43.47;101136.94;4957410;28;20055;-76
2022/07/29 09:48:24;;;;;;;6.28;3.78;;;;;;;34.85;42.00;101131.72;4956769;29;20027;-76
2022/07/29 09:51:20;;;;;;;5.28;3.28;;;;;;;35.14;41.36;101126.53;4957179;29;20105;-76
2022/07/29 09:54:26;;;;;;;6.55;3.67;;;;;;;34.98;41.53;101125.72;4957311;28;20063;-76
2022/07/29 09:57:26;;;;;;;4.90;3.33;;;;;;;35.10;42.09;101121.59;4957038;29;20039;-75
2022/07/29 10:00:18;;;;;;;4.95;3.50;;;;;;;35.14;42.38;101125.69;4957267;29;20361;-75
2022/07/29 10:03:04;;;;;;;5.07;3.58;;;;;;;34.54;41.96;101121.66;4957217;29;20034;-75
2022/07/29 10:06:13;;;;;;;7.43;3.50;;;;;;;34.96;42.78;101115.00;4944287;28;20544;-75
2022/07/29 10:09:10;;;;;;;4.07;3.50;;;;;;;34.76;40.69;101113.63;4957378;29;20122;-76
2022/07/29 10:12:13;;;;;;;5.50;3.20;;;;;;;34.90;40.86;101110.25;4957102;29;20027;-75
2022/07/29 10:15:01;;;;;;;10.57;6.18;;;;;;;34.61;42.40;101109.06;4956690;28;20042;-75
2022/07/29 10:17:50;;;;;;;6.95;3.50;;;;;;;34.52;42.02;101107.38;4956558;29;20031;-77
2022/07/29 10:20:37;;;;;;;4.40;3.97;;;;;;;34.16;43.54;101097.81;4944315;29;20026;-74
2022/07/29 10:23:23;;;;;;;8.73;5.47;;;;;;;34.75;44.96;101102.91;4956273;28;20126;-75
2022/07/29 10:26:10;;;;;;;8.00;5.50;;;;;;;35.28;42.92;101095.03;4956661;29;20047;-76
2022/07/29 10:28:56;;;;;;;8.68;3.70;;;;;;;35.58;40.68;101094.19;4956432;29;20094;-76
2022/07/29 10:31:57;;;;;;;5.57;3.70;;;;;;;35.12;40.71;101093.16;4957046;29;20019;-75
2022/07/29 10:34:55;;;;;;;5.68;3.50;;;;;;;34.47;38.63;101096.16;4955656;28;20366;-76
2022/07/29 10:38:00;;;;;;;5.28;3.40;;;;;;;34.72;40.09;101095.09;4956111;29;20036;-75
2022/07/29 10:44:17;;;;;;;4.75;3.35;;;;;;;35.32;39.79;101082.72;4956170;28;20043;-76
2022/07/29 10:47:03;;;;;;;4.32;3.65;;;;;;;35.03;40.03;101080.59;4955898;29;20031;-75
2022/07/29 10:49:57;;;;;;;4.47;3.15;;;;;;;35.07;38.61;101072.91;4956612;29;20069;-75
2022/07/29 10:52:49;;;;;;;7.03;3.47;;;;;;;35.41;39.14;101075.34;4955883;29;20102;-75
2022/07/29 10:55:48;;;;;;;4.55;3.60;;;;;;;34.81;39.07;101077.75;4956021;29;20038;-75
2022/07/29 10:58:33;;;;;;;6.13;3.47;;;;;;;34.78;38.85;101073.47;4956003;29;20027;-75
2022/07/29 11:01:30;;;;;;;5.55;3.33;;;;;;;34.85;39.61;101073.66;4956208;29;20112;-76
2022/07/29 11:04:45;;;;;;;3.88;3.47;;;;;;;35.28;38.75;101059.59;4943093;28;20030;-75
2022/07/29 11:07:34;;;;;;;6.50;5.20;;;;;;;35.43;39.85;101060.50;4955833;29;20027;-75
2022/07/29 11:10:21;;;;;;;8.18;4.28;;;;;;;35.40;40.41;101052.72;4956448;29;20031;-76
2022/07/29 11:13:06;;;;;;;5.53;3.50;;;;;;;35.01;41.35;101047.22;4955670;29;20046;-76
2022/07/29 11:15:57;;;;;;;5.97;3.38;;;;;;;35.65;41.86;101043.38;4956814;29;20442;-76
2022/07/29 11:19:11;;;;;;;4.93;3.85;;;;;;;35.73;42.06;101039.72;4955414;29;20031;-76
2022/07/29 11:21:57;;;;;;;7.63;3.90;;;;;;;35.43;43.25;101032.44;4956242;29;20137;-75
2022/07/29 11:24:43;;;;;;;4.97;3.80;;;;;;;35.82;41.16;101034.06;4955522;28;20123;-75
2022/07/29 11:27:39;;;;;;;5.95;3.97;;;;;;;35.24;41.55;101026.34;4955380;29;20048;-76
2022/07/29 11:30:49;;;;;;;4.28;3.42;;;;;;;35.89;40.50;101036.91;4955374;29;20109;-76
2022/07/29 11:33:35;;;;;;;3.70;3.35;;;;;;;36.27;40.17;101036.78;4955592;28;20370;-76
2022/07/29 11:36:21;;;;;;;4.90;3.70;;;;;;;36.09;39.30;101028.06;4959212;29;20027;-76
2022/07/29 11:39:27;;;;;;;5.90;3.80;;;;;;;36.16;40.47;101028.19;4959405;29;20031;-76
2022/07/29 11:42:19;;;;;;;6.13;3.83;;;;;;;35.93;39.89;101021.88;4959244;29;20046;-75
2022/07/29 11:45:17;;;;;;;4.10;3.80;;;;;;;35.95;40.26;101014.38;4959493;28;20071;-76
2022/07/29 11:48:05;;;;;;;8.07;4.22;;;;;;;35.87;40.26;101008.97;4959217;29;20032;-76
2022/07/29 11:50:51;;;;;;;8.18;4.03;;;;;;;36.59;41.39;101008.31;4959924;29;20126;-76
2022/07/29 11:53:39;;;;;;;7.82;3.95;;;;;;;36.43;41.78;101013.97;4959175;28;20462;-76
2022/07/29 11:56:30;;;;;;;8.70;4.05;;;;;;;36.17;40.64;101003.44;4947256;28;20023;-75
2022/07/29 11:59:17;;;;;;;5.07;3.72;;;;;;;35.44;42.03;100999.53;4959181;29;20020;-76
2022/07/29 12:02:03;;;;;;;5.28;3.95;;;;;;;36.14;41.03;101011.13;4959212;29;20054;-76
2022/07/29 12:04:53;;;;;;;5.47;3.72;;;;;;;35.91;40.86;100999.41;4959260;28;20023;-75
2022/07/29 12:07:39;;;;;;;7.45;3.63;;;;;;;36.24;41.27;101003.56;4959505;29;20027;-77
2022/07/29 12:10:30;;;;;;;7.43;4.07;;;;;;;36.43;39.95;101001.16;4959217;29;20031;-75
2022/07/29 12:13:20;;;;;;;5.63;4.10;;;;;;;36.67;40.15;100997.28;4959258;28;20031;-76
2022/07/29 12:16:06;;;;;;;10.50;6.88;;;;;;;36.53;40.01;100992.69;4959979;29;20031;-74
2022/07/29 12:18:56;;;;;;;5.35;4.00;;;;;;;36.34;40.36;100985.91;4959967;29;20035;-74
2022/07/29 12:21:54;;;;;;;4.72;3.60;;;;;;;36.43;40.66;100986.66;4961646;29;20027;-76
2022/07/29 12:24:44;;;;;;;7.07;3.75;;;;;;;36.50;41.33;100984.88;4958372;28;20031;-76
2022/07/29 12:27:31;;;;;;;5.78;3.58;;;;;;;36.33;39.86;100981.47;4959004;29;20051;-76
2022/07/29 12:30:16;;;;;;;8.95;3.90;;;;;;;36.21;39.68;100980.19;4957689;29;20041;-76
2022/07/29 12:33:19;;;;;;;4.18;3.78;;;;;;;36.29;40.40;100973.84;4958820;29;20366;-75
2022/07/29 12:36:06;;;;;;;4.00;3.60;;;;;;;36.60;41.35;100967.16;4960966;29;20027;-74
2022/07/29 12:38:52;;;;;;;6.57;3.92;;;;;;;36.58;41.13;100969.25;4960247;29;20027;-75
2022/07/29 12:41:38;;;;;;;6.68;4.45;;;;;;;36.75;40.77;100956.25;4959977;29;20361;-76
2022/07/29 12:44:25;;;;;;;5.70;4.03;;;;;;;35.91;40.18;100958.50;4958929;28;20035;-76
2022/07/29 12:47:11;;;;;;;9.20;3.90;;;;;;;36.02;40.69;100944.38;4957030;28;20339;-75
2022/07/29 12:50:19;;;;;;;5.28;3.92;;;;;;;35.93;40.36;100949.09;4958356;29;20055;-75
2022/07/29 12:53:14;;;;;;;7.18;3.60;;;;;;;36.45;40.20;100940.91;4958107;29;20413;-76
2022/07/29 12:56:03;;;;;;;6.25;3.60;;;;;;;36.10;41.04;100939.69;4945385;29;20065;-76
2022/07/29 12:58:49;;;;;;;4.82;3.78;;;;;;;36.27;40.62;100944.00;4945593;29;20055;-76
2022/07/29 13:01:36;;;;;;;4.80;3.95;;;;;;;36.10;39.74;100933.38;4958691;29;20078;-76
2022/07/29 13:04:33;;;;;;;4.75;3.83;;;;;;;36.09;39.33;100935.28;4944822;29;20023;-76